createdAt,value
2023-05-15T00:01:51.150Z,15.65
2023-05-15T00:04:17.696Z,16.30
2023-05-15T00:06:44.366Z,15.98
2023-05-15T00:09:10.928Z,16.52
2023-05-15T00:11:37.447Z,15.95
2023-05-15T00:14:04.071Z,17.60
2023-05-15T00:16:30.672Z,16.00
2023-05-15T00:18:57.315Z,16.00
2023-05-15T00:21:23.866Z,16.30
2023-05-15T00:23:50.409Z,16.60
2023-05-15T00:26:16.879Z,15.77
2023-05-15T00:28:43.476Z,16.15
2023-05-15T00:31:10.004Z,16.25
2023-05-15T00:33:36.465Z,15.45
2023-05-15T00:36:03.009Z,16.77
2023-05-15T00:38:29.551Z,15.63
2023-05-15T00:40:56.545Z,16.85
2023-05-15T00:43:25.575Z,16.67
2023-05-15T00:45:53.499Z,16.65
2023-05-15T00:48:20.601Z,16.60
2023-05-15T00:50:47.456Z,16.60
2023-05-15T00:53:14.382Z,17.85
2023-05-15T00:55:42.019Z,16.30
2023-05-15T00:58:10.740Z,15.95
2023-05-15T01:00:38.004Z,15.63
2023-05-15T01:03:05.981Z,16.33
2023-05-15T01:05:32.731Z,16.63
2023-05-15T01:08:10.919Z,17.05
2023-05-15T01:10:37.679Z,17.90
2023-05-15T01:13:05.756Z,16.05
2023-05-15T01:15:32.894Z,16.27
2023-05-15T01:17:59.481Z,16.67
2023-05-15T01:20:27.310Z,16.05
2023-05-15T01:23:08.771Z,16.67
2023-05-15T01:25:46.512Z,15.85
2023-05-15T01:28:18.705Z,16.90
2023-05-15T01:30:46.261Z,16.73
2023-05-15T01:33:29.591Z,16.55
2023-05-15T01:36:02.410Z,16.85
2023-05-15T01:38:38.838Z,16.52
2023-05-15T01:41:19.457Z,15.20
2023-05-15T01:43:48.498Z,15.77
2023-05-15T01:46:19.651Z,16.00
2023-05-15T01:48:47.975Z,16.13
2023-05-15T01:51:15.843Z,16.88
2023-05-15T01:53:44.199Z,16.40
2023-05-15T01:56:13.941Z,16.15
2023-05-15T02:01:09.705Z,16.15
2023-05-15T02:03:37.099Z,16.25
2023-05-15T02:06:05.312Z,15.88
2023-05-15T02:08:32.813Z,15.77
2023-05-15T02:11:00.969Z,17.00
2023-05-15T02:13:28.269Z,16.48
2023-05-15T02:15:54.937Z,15.55
2023-05-15T02:18:21.537Z,16.08
2023-05-15T02:20:48.014Z,16.30
2023-05-15T02:23:14.513Z,16.48
2023-05-15T02:26:10.286Z,15.48
2023-05-15T02:29:07.528Z,15.27
2023-05-15T02:31:34.049Z,14.82
2023-05-15T02:34:14.382Z,15.73
2023-05-15T02:36:44.399Z,16.77
2023-05-15T02:39:13.043Z,15.43
2023-05-15T02:41:40.101Z,15.93
2023-05-15T02:44:08.321Z,17.20
2023-05-15T02:46:37.046Z,16.00
2023-05-15T02:49:04.509Z,16.45
2023-05-15T02:51:30.993Z,15.25
2023-05-15T02:54:00.383Z,16.25
2023-05-15T02:56:26.887Z,15.57
2023-05-15T02:58:53.704Z,17.33
2023-05-15T03:01:20.325Z,15.38
2023-05-15T03:03:47.622Z,16.30
2023-05-15T03:06:14.239Z,15.32
2023-05-15T03:08:40.710Z,16.88
2023-05-15T03:11:07.198Z,16.30
2023-05-15T03:13:33.670Z,16.58
2023-05-15T03:16:00.171Z,18.33
2023-05-15T03:18:26.744Z,16.65
2023-05-15T03:20:53.444Z,16.23
2023-05-15T03:23:19.993Z,16.13
2023-05-15T03:25:46.504Z,15.18
2023-05-15T03:28:13.079Z,16.02
2023-05-15T03:30:39.545Z,15.23
2023-05-15T03:33:06.150Z,15.90
2023-05-15T03:35:32.680Z,16.02
2023-05-15T03:37:59.227Z,15.18
2023-05-15T03:40:25.760Z,14.43
2023-05-15T03:42:52.285Z,15.80
2023-05-15T03:45:19.137Z,15.65
2023-05-15T03:47:45.676Z,15.85
2023-05-15T03:50:12.326Z,16.27
2023-05-15T03:52:40.054Z,16.65
2023-05-15T03:55:08.376Z,16.05
2023-05-15T03:57:35.191Z,15.25
2023-05-15T04:00:01.822Z,16.85
2023-05-15T04:02:28.399Z,16.13
2023-05-15T04:04:54.977Z,17.00
2023-05-15T04:07:21.515Z,17.67
2023-05-15T04:09:48.068Z,16.55
2023-05-15T04:12:14.608Z,17.00
2023-05-15T04:14:41.176Z,16.67
2023-05-15T04:17:07.683Z,17.95
2023-05-15T04:19:34.272Z,17.10
2023-05-15T04:22:00.748Z,17.67
2023-05-15T04:24:27.214Z,20.13
2023-05-15T04:26:53.769Z,21.98
2023-05-15T04:29:20.342Z,21.65
2023-05-15T04:31:46.924Z,22.05
2023-05-15T04:34:13.571Z,22.27
2023-05-15T04:36:40.868Z,19.85
2023-05-15T04:39:09.295Z,21.40
2023-05-15T04:41:35.821Z,22.42
2023-05-15T04:44:02.326Z,22.00
2023-05-15T04:46:29.110Z,20.50
2023-05-15T04:48:55.662Z,22.13
2023-05-15T04:51:22.170Z,22.77
2023-05-15T04:53:48.684Z,22.02
2023-05-15T04:56:15.291Z,21.80
2023-05-15T04:58:41.827Z,20.58
2023-05-15T05:01:08.451Z,22.90
2023-05-15T05:03:35.051Z,20.02
2023-05-15T05:06:01.562Z,22.17
2023-05-15T05:08:28.065Z,21.88
2023-05-15T05:10:57.434Z,23.65
2023-05-15T05:13:23.978Z,20.60
2023-05-15T05:15:50.611Z,22.75
2023-05-15T05:18:17.146Z,22.83
2023-05-15T05:20:43.675Z,19.70
2023-05-15T05:23:10.177Z,23.83
2023-05-15T05:25:36.657Z,22.67
2023-05-15T05:28:03.236Z,21.50
2023-05-15T05:30:29.770Z,20.92
2023-05-15T05:32:56.334Z,18.48
2023-05-15T05:35:23.040Z,18.92
2023-05-15T05:37:49.636Z,19.42
2023-05-15T05:40:16.168Z,20.30
2023-05-15T05:42:42.655Z,19.65
2023-05-15T05:45:09.599Z,19.45
2023-05-15T05:47:36.151Z,19.73
2023-05-15T05:50:02.778Z,19.80
2023-05-15T05:52:29.280Z,20.45
2023-05-15T05:54:55.793Z,22.02
2023-05-15T05:57:22.293Z,20.45
2023-05-15T05:59:48.873Z,19.75
2023-05-15T06:02:15.940Z,17.88
2023-05-15T06:04:42.521Z,18.98
2023-05-15T06:07:09.064Z,19.35
2023-05-15T06:09:35.592Z,19.40
2023-05-15T06:12:02.100Z,18.75
2023-05-15T06:14:28.639Z,17.83
2023-05-15T06:16:55.217Z,20.13
2023-05-15T06:19:21.973Z,18.65
2023-05-15T06:21:48.598Z,19.67
2023-05-15T06:24:15.082Z,21.63
2023-05-15T06:26:41.726Z,19.92
2023-05-15T06:29:08.255Z,21.52
2023-05-15T06:31:34.835Z,19.90
2023-05-15T06:34:01.406Z,19.15
2023-05-15T06:36:27.945Z,20.65
2023-05-15T06:38:54.479Z,20.65
2023-05-15T06:41:20.976Z,20.17
2023-05-15T06:43:47.440Z,17.88
2023-05-15T06:46:13.991Z,18.08
2023-05-15T06:48:40.582Z,18.15
2023-05-15T06:51:07.176Z,17.30
2023-05-15T06:53:33.724Z,17.77
2023-05-15T06:56:00.246Z,18.92
2023-05-15T06:58:26.815Z,19.40
2023-05-15T07:00:54.886Z,19.25
2023-05-15T07:03:22.868Z,19.17
2023-05-15T07:05:49.451Z,19.90
2023-05-15T07:08:15.953Z,21.70
2023-05-15T07:10:42.450Z,19.85
2023-05-15T07:13:09.028Z,20.05
2023-05-15T07:15:35.562Z,19.95
2023-05-15T07:18:02.242Z,19.48
2023-05-15T07:20:30.958Z,19.92
2023-05-15T07:22:58.940Z,20.13
2023-05-15T07:25:26.029Z,19.13
2023-05-15T07:27:52.800Z,18.35
2023-05-15T07:30:19.757Z,19.58
2023-05-15T07:32:46.345Z,20.70
2023-05-15T07:35:12.910Z,19.02
2023-05-15T07:37:39.783Z,19.52
2023-05-15T07:40:07.190Z,17.80
2023-05-15T07:42:33.777Z,19.38
2023-05-15T07:45:00.466Z,18.35
2023-05-15T07:47:27.102Z,18.15
2023-05-15T07:49:53.694Z,19.40
2023-05-15T07:52:20.330Z,20.17
2023-05-15T07:54:46.817Z,17.85
2023-05-15T07:57:13.370Z,18.10
2023-05-15T07:59:39.956Z,17.45
2023-05-15T08:02:06.962Z,18.45
2023-05-15T08:04:33.677Z,17.58
2023-05-15T08:07:00.393Z,17.48
2023-05-15T08:09:26.909Z,19.40
2023-05-15T08:11:56.263Z,17.77
2023-05-15T08:14:22.824Z,18.55
2023-05-15T08:16:49.986Z,17.33
2023-05-15T08:19:16.537Z,18.20
2023-05-15T08:21:44.237Z,18.50
2023-05-15T08:24:10.720Z,18.23
2023-05-15T08:26:37.205Z,17.33
2023-05-15T08:29:03.748Z,17.23
2023-05-15T08:31:30.339Z,17.77
2023-05-15T08:33:56.844Z,19.63
2023-05-15T08:36:23.479Z,17.65
2023-05-15T08:38:50.064Z,15.35
2023-05-15T08:41:47.773Z,16.98
2023-05-15T08:44:14.476Z,16.17
2023-05-15T08:46:41.409Z,15.07
2023-05-15T08:49:52.189Z,14.57
2023-05-15T08:52:18.926Z,14.95
2023-05-15T08:54:48.102Z,14.65
2023-05-15T08:57:15.199Z,13.93
2023-05-15T08:59:41.829Z,13.70
2023-05-15T09:02:08.433Z,14.63
2023-05-15T09:04:35.128Z,14.43
2023-05-15T09:07:03.649Z,14.95
2023-05-15T09:09:32.874Z,14.23
2023-05-15T09:12:00.971Z,12.35
2023-05-15T09:14:27.636Z,14.85
2023-05-15T09:16:54.292Z,15.05
2023-05-15T09:19:21.272Z,14.57
2023-05-15T09:21:48.473Z,13.70
2023-05-15T09:24:23.456Z,12.55
2023-05-15T09:29:34.503Z,14.43
2023-05-15T09:32:06.056Z,14.75
2023-05-15T09:34:34.266Z,13.70
2023-05-15T09:37:02.653Z,15.20
2023-05-15T09:39:29.277Z,14.48
2023-05-15T09:42:09.759Z,14.63
2023-05-15T09:44:40.394Z,12.95
2023-05-15T09:47:07.858Z,14.25
2023-05-15T09:49:35.769Z,14.85
2023-05-15T09:52:02.335Z,14.82
2023-05-15T09:54:28.914Z,15.60
2023-05-15T09:56:56.396Z,16.52
2023-05-15T09:59:23.004Z,13.43
2023-05-15T10:01:51.213Z,12.98
2023-05-15T10:04:18.195Z,14.23
2023-05-15T10:06:48.803Z,12.70
2023-05-15T10:09:15.829Z,13.80
2023-05-15T10:11:45.077Z,15.10
2023-05-15T10:14:13.110Z,13.80
2023-05-15T10:16:43.155Z,12.60
2023-05-15T10:19:11.548Z,14.07
2023-05-15T10:21:41.806Z,14.20
2023-05-15T10:24:08.668Z,12.60
2023-05-15T10:26:42.580Z,12.60
2023-05-15T10:29:11.440Z,13.25
2023-05-15T10:31:39.679Z,13.38
2023-05-15T10:34:07.312Z,14.45
2023-05-15T10:36:37.963Z,11.40
2023-05-15T10:39:06.978Z,10.75
2023-05-15T10:41:40.283Z,11.85
2023-05-15T10:44:06.916Z,11.93
2023-05-15T10:46:35.870Z,12.52
2023-05-15T10:49:02.589Z,13.10
2023-05-15T10:51:32.747Z,12.48
2023-05-15T10:54:01.105Z,12.27
2023-05-15T10:56:30.920Z,11.15
2023-05-15T10:58:57.917Z,9.98
2023-05-15T11:01:29.142Z,8.75
2023-05-15T11:04:06.652Z,7.82
2023-05-15T11:06:33.621Z,6.47
2023-05-15T11:09:21.949Z,7.50
2023-05-15T11:11:51.353Z,6.25
2023-05-15T11:14:21.069Z,7.43
2023-05-15T11:16:53.928Z,8.52
2023-05-15T11:19:25.266Z,8.32
2023-05-15T11:22:02.282Z,8.55
2023-05-15T11:24:32.846Z,9.60
2023-05-15T11:27:01.263Z,9.95
2023-05-15T11:29:27.907Z,8.32
2023-05-15T11:31:54.646Z,8.77
2023-05-15T11:34:34.208Z,8.60
2023-05-15T11:37:00.869Z,8.80
2023-05-15T11:39:28.340Z,9.63
2023-05-15T11:41:55.049Z,8.95
2023-05-15T11:44:24.560Z,8.80
2023-05-15T11:46:51.217Z,9.27
2023-05-15T11:49:20.802Z,9.63
2023-05-15T11:51:48.566Z,9.88
2023-05-15T11:54:15.236Z,10.05
2023-05-15T11:56:43.481Z,10.32
2023-05-15T11:59:12.611Z,11.50
2023-05-15T12:01:43.348Z,11.02
2023-05-15T12:04:18.155Z,11.27
2023-05-15T12:06:45.591Z,10.25
2023-05-15T12:09:16.040Z,9.68
2023-05-15T12:11:51.240Z,10.93
2023-05-15T12:14:17.748Z,9.07
2023-05-15T12:16:44.341Z,8.75
2023-05-15T12:19:10.970Z,10.73
2023-05-15T12:21:37.906Z,11.15
2023-05-15T12:24:08.046Z,10.27
2023-05-15T12:26:35.421Z,11.48
2023-05-15T12:29:02.213Z,11.52
2023-05-15T12:31:29.313Z,10.00
2023-05-15T12:33:56.597Z,9.82
2023-05-15T12:36:23.200Z,8.43
2023-05-15T12:38:49.823Z,8.95
2023-05-15T12:41:16.376Z,10.40
2023-05-15T12:43:42.984Z,9.68
2023-05-15T12:46:09.765Z,9.10
2023-05-15T12:48:36.742Z,8.38
2023-05-15T12:51:07.905Z,8.88
2023-05-15T12:53:34.802Z,8.50
2023-05-15T12:56:01.830Z,8.35
2023-05-15T12:58:28.522Z,7.78
2023-05-15T13:00:55.814Z,9.90
2023-05-15T13:03:24.077Z,10.40
2023-05-15T13:05:52.076Z,9.88
2023-05-15T13:08:19.101Z,11.10
2023-05-15T13:10:47.034Z,11.48
2023-05-15T13:13:13.761Z,12.25
2023-05-15T13:15:43.876Z,11.32
2023-05-15T13:18:15.742Z,12.45
2023-05-15T13:20:44.786Z,12.85
2023-05-15T13:23:13.699Z,11.15
2023-05-15T13:25:40.726Z,11.98
2023-05-15T13:28:09.984Z,12.25
2023-05-15T13:30:37.315Z,12.38
2023-05-15T13:33:03.987Z,12.57
2023-05-15T13:35:30.906Z,12.88
2023-05-15T13:37:57.530Z,11.98
2023-05-15T13:40:24.477Z,11.57
2023-05-15T13:42:51.276Z,13.18
2023-05-15T13:45:17.836Z,14.23
2023-05-15T13:47:44.795Z,12.95
2023-05-15T13:50:13.433Z,13.70
2023-05-15T13:52:41.071Z,13.32
2023-05-15T13:55:08.404Z,12.20
2023-05-15T13:57:36.199Z,12.48
2023-05-15T14:00:02.738Z,12.35
2023-05-15T14:02:29.353Z,10.85
2023-05-15T14:04:55.933Z,13.00
2023-05-15T14:07:23.170Z,13.57
2023-05-15T14:09:50.897Z,12.48
2023-05-15T14:12:17.902Z,15.23
2023-05-15T14:14:47.999Z,12.75
2023-05-15T14:17:14.946Z,12.70
2023-05-15T14:19:42.004Z,13.00
2023-05-15T14:22:08.811Z,12.40
2023-05-15T14:24:35.396Z,13.05
2023-05-15T14:27:01.915Z,13.70
2023-05-15T14:29:28.435Z,12.60
2023-05-15T14:31:54.984Z,13.27
2023-05-15T14:34:21.547Z,14.45
2023-05-15T14:36:48.441Z,13.07
2023-05-15T14:39:15.497Z,12.68
2023-05-15T14:41:43.120Z,12.07
2023-05-15T14:44:09.669Z,14.48
2023-05-15T14:46:36.578Z,13.80
2023-05-15T14:49:03.832Z,12.48
2023-05-15T14:51:31.054Z,13.68
2023-05-15T14:53:57.964Z,13.88
2023-05-15T14:56:24.827Z,15.05
2023-05-15T14:58:51.404Z,14.65
2023-05-15T15:01:17.956Z,14.93
2023-05-15T15:03:44.556Z,15.15
2023-05-15T15:06:11.587Z,14.90
2023-05-15T15:08:38.127Z,16.55
2023-05-15T15:11:04.920Z,16.25
2023-05-15T15:13:31.779Z,17.30
2023-05-15T15:15:58.446Z,17.60
2023-05-15T15:18:25.034Z,17.60
2023-05-15T15:20:51.512Z,14.95
2023-05-15T15:23:18.048Z,16.02
2023-05-15T15:25:44.569Z,17.55
2023-05-15T15:28:11.095Z,17.90
2023-05-15T15:30:37.618Z,17.70
2023-05-15T15:33:04.279Z,17.27
2023-05-15T15:35:31.030Z,15.45
2023-05-15T15:37:57.519Z,15.73
2023-05-15T15:40:24.591Z,16.40
2023-05-15T15:42:51.330Z,16.42
2023-05-15T15:45:17.808Z,17.58
2023-05-15T15:47:45.418Z,16.17
2023-05-15T15:50:12.157Z,15.15
2023-05-15T15:52:38.754Z,15.93
2023-05-15T15:55:05.961Z,16.42
2023-05-15T15:57:33.180Z,16.92
2023-05-15T15:59:59.828Z,17.63
2023-05-15T16:02:26.451Z,16.65
2023-05-15T16:04:53.026Z,17.30
2023-05-15T16:07:19.576Z,18.00
2023-05-15T16:09:49.476Z,17.33
2023-05-15T16:12:23.389Z,15.73
2023-05-15T16:14:49.893Z,17.50
2023-05-15T16:17:16.696Z,16.33
2023-05-15T16:19:43.286Z,16.48
2023-05-15T16:22:09.967Z,14.43
2023-05-15T16:24:36.789Z,14.85
2023-05-15T16:27:03.999Z,12.40
2023-05-15T16:29:30.561Z,14.25
2023-05-15T16:31:57.632Z,16.35
2023-05-15T16:34:24.263Z,16.50
2023-05-15T16:36:50.891Z,12.75
2023-05-15T16:39:17.379Z,10.38
2023-05-15T16:41:43.899Z,10.02
2023-05-15T16:44:10.422Z,10.98
2023-05-15T16:46:37.901Z,12.35
2023-05-15T16:49:04.842Z,15.52
2023-05-15T16:51:31.441Z,16.85
2023-05-15T16:53:58.032Z,19.70
2023-05-15T16:56:25.217Z,19.90
2023-05-15T16:58:55.682Z,23.13
2023-05-15T17:01:22.211Z,22.38
2023-05-15T17:03:48.861Z,20.10
2023-05-15T17:06:15.542Z,22.88
2023-05-15T17:08:42.012Z,21.67
2023-05-15T17:11:08.536Z,18.95
2023-05-15T17:13:35.064Z,21.98
2023-05-15T17:16:01.609Z,21.05
2023-05-15T17:18:28.216Z,20.55
2023-05-15T17:20:54.858Z,20.95
2023-05-15T17:23:23.075Z,21.70
2023-05-15T17:25:52.249Z,21.38
2023-05-15T17:28:18.791Z,21.45
2023-05-15T17:30:45.326Z,19.95
2023-05-15T17:33:11.908Z,20.55
2023-05-15T17:35:38.912Z,20.20
2023-05-15T17:38:05.439Z,21.15
2023-05-15T17:40:31.960Z,20.83
2023-05-15T17:42:58.467Z,18.48
2023-05-15T17:45:25.052Z,13.88
2023-05-15T17:47:54.018Z,13.30
2023-05-15T17:50:20.531Z,11.63
2023-05-15T17:52:47.019Z,9.10
2023-05-15T17:55:13.571Z,8.25
2023-05-15T17:57:40.099Z,9.38
2023-05-15T18:00:07.293Z,8.80
2023-05-15T18:02:33.920Z,7.68
2023-05-15T18:05:00.469Z,7.35
2023-05-15T18:07:27.034Z,8.18
2023-05-15T18:09:54.967Z,8.15
2023-05-15T18:12:21.510Z,8.48
2023-05-15T18:14:48.031Z,6.95
2023-05-15T18:17:14.811Z,7.13
2023-05-15T18:19:41.329Z,6.90
2023-05-15T18:22:07.817Z,7.15
2023-05-15T18:24:34.293Z,7.00
2023-05-15T18:27:00.754Z,6.68
2023-05-15T18:29:27.280Z,7.40
2023-05-15T18:31:53.847Z,5.78
2023-05-15T18:34:20.529Z,6.00
2023-05-15T18:36:47.047Z,5.22
2023-05-15T18:39:13.592Z,7.28
2023-05-15T18:41:40.383Z,6.53
2023-05-15T18:44:06.908Z,5.90
2023-05-15T18:46:33.595Z,6.13
2023-05-15T18:49:00.628Z,6.57
2023-05-15T18:51:27.142Z,5.78
2023-05-15T18:53:53.696Z,6.10
2023-05-15T18:56:20.258Z,5.40
2023-05-15T18:58:46.789Z,5.95
2023-05-15T19:01:13.425Z,5.70
2023-05-15T19:03:41.353Z,5.85
2023-05-15T19:06:07.904Z,4.80
2023-05-15T19:08:34.395Z,5.25
2023-05-15T19:11:01.685Z,4.95
2023-05-15T19:13:28.281Z,4.47
2023-05-15T19:15:54.861Z,5.57
2023-05-15T19:18:21.409Z,4.45
2023-05-15T19:20:48.252Z,4.60
2023-05-15T19:23:14.967Z,4.63
2023-05-15T19:25:41.447Z,5.10
2023-05-15T19:28:07.939Z,4.47
2023-05-15T19:30:34.496Z,4.38
2023-05-15T19:33:00.995Z,4.32
2023-05-15T19:35:27.518Z,3.63
2023-05-15T19:37:54.013Z,3.72
2023-05-15T19:40:20.564Z,3.30
2023-05-15T19:42:47.090Z,3.03
2023-05-15T19:45:13.615Z,2.95
2023-05-15T19:47:40.215Z,2.60
2023-05-15T19:50:07.376Z,2.80
2023-05-15T19:52:33.858Z,2.10
2023-05-15T19:55:00.428Z,2.78
2023-05-15T19:57:26.955Z,2.22
2023-05-15T19:59:53.558Z,2.45
2023-05-15T20:02:20.152Z,2.55
2023-05-15T20:04:47.082Z,2.10
2023-05-15T20:07:13.624Z,2.25
2023-05-15T20:09:40.101Z,2.35
2023-05-15T20:12:06.928Z,2.22
2023-05-15T20:14:33.438Z,2.40
2023-05-15T20:17:00.004Z,2.47
2023-05-15T20:19:27.034Z,2.38
2023-05-15T20:21:53.544Z,2.17
2023-05-15T20:24:20.018Z,2.13
2023-05-15T20:26:46.592Z,2.33
2023-05-15T20:29:13.103Z,2.75
2023-05-15T20:31:39.777Z,2.80
2023-05-15T20:34:06.364Z,2.47
2023-05-15T20:36:32.889Z,2.47
2023-05-15T20:38:59.420Z,2.47
2023-05-15T20:41:25.899Z,2.65
2023-05-15T20:43:52.394Z,2.45
2023-05-15T20:46:19.049Z,2.10
2023-05-15T20:48:45.654Z,2.22
2023-05-15T20:51:12.127Z,2.80
2023-05-15T20:53:38.662Z,2.90
2023-05-15T20:56:05.361Z,2.70
2023-05-15T20:58:31.919Z,3.05
2023-05-15T21:00:58.626Z,3.08
2023-05-15T21:03:25.225Z,3.15
2023-05-15T21:05:52.303Z,3.28
2023-05-15T21:08:19.810Z,2.90
2023-05-15T21:10:46.315Z,3.75
2023-05-15T21:13:12.792Z,3.35
2023-05-15T21:15:39.262Z,3.25
2023-05-15T21:18:05.858Z,3.22
2023-05-15T21:20:34.369Z,3.97
2023-05-15T21:23:01.771Z,3.67
2023-05-15T21:25:28.508Z,3.88
2023-05-15T21:27:54.990Z,3.35
2023-05-15T21:30:21.555Z,4.70
2023-05-15T21:32:48.151Z,3.78
2023-05-15T21:35:14.768Z,4.18
2023-05-15T21:37:41.363Z,4.00
2023-05-15T21:40:08.543Z,4.45
2023-05-15T21:42:35.038Z,4.18
2023-05-15T21:45:02.118Z,4.15
2023-05-15T21:47:29.425Z,4.38
2023-05-15T21:49:55.912Z,4.13
2023-05-15T21:52:22.613Z,4.55
2023-05-15T21:54:49.115Z,4.75
2023-05-15T21:57:15.636Z,4.78
2023-05-15T21:59:42.216Z,4.22
2023-05-15T22:02:08.877Z,4.32
2023-05-15T22:04:35.442Z,4.70
2023-05-15T22:07:01.938Z,4.57
2023-05-15T22:09:28.405Z,4.00
2023-05-15T22:11:54.889Z,4.05
2023-05-15T22:14:21.357Z,3.55
2023-05-15T22:16:47.860Z,4.45
2023-05-15T22:19:31.669Z,5.00
2023-05-15T22:22:00.051Z,4.20
2023-05-15T22:24:26.840Z,4.55
2023-05-15T22:26:53.299Z,4.88
2023-05-15T22:29:19.784Z,5.50
2023-05-15T22:31:46.323Z,4.72
2023-05-15T22:34:12.887Z,4.35
2023-05-15T22:36:39.400Z,5.13
2023-05-15T22:39:05.928Z,4.25
2023-05-15T22:41:32.478Z,4.90
2023-05-15T22:43:59.041Z,4.97
2023-05-15T22:46:25.621Z,4.15
2023-05-15T22:48:52.153Z,4.72
2023-05-15T22:51:18.707Z,4.70
2023-05-15T22:53:45.244Z,5.30
2023-05-15T22:56:11.770Z,4.78
2023-05-15T22:58:38.364Z,5.30
2023-05-15T23:01:04.966Z,4.97
2023-05-15T23:03:31.511Z,5.13
2023-05-15T23:05:58.062Z,4.70
2023-05-15T23:08:24.623Z,5.13
2023-05-15T23:10:51.125Z,4.85
2023-05-15T23:13:17.600Z,5.90
2023-05-15T23:15:44.205Z,5.72
2023-05-15T23:18:10.884Z,5.40
2023-05-15T23:20:37.371Z,5.43
2023-05-15T23:23:03.912Z,5.32
2023-05-15T23:25:30.763Z,5.35
2023-05-15T23:27:57.322Z,4.72
2023-05-15T23:30:24.011Z,4.90
2023-05-15T23:32:50.618Z,4.22
2023-05-15T23:35:17.219Z,4.10
2023-05-15T23:37:43.720Z,4.15
2023-05-15T23:40:10.893Z,3.13
2023-05-15T23:42:37.452Z,3.45
2023-05-15T23:45:04.304Z,3.53
2023-05-15T23:47:30.842Z,3.28
2023-05-15T23:49:57.517Z,3.47
2023-05-15T23:52:23.998Z,3.05
2023-05-15T23:54:50.521Z,4.25
2023-05-15T23:57:16.984Z,3.13
2023-05-15T23:59:43.489Z,3.63
